createdAt,value
2018-07-15T00:01:20.003Z,52.53
2018-07-15T00:03:47.911Z,52.50
2018-07-15T00:06:15.761Z,52.41
2018-07-15T00:08:43.654Z,53.10
2018-07-15T00:11:11.577Z,52.49
2018-07-15T00:13:39.438Z,52.55
2018-07-15T00:16:07.322Z,53.19
2018-07-15T00:18:35.216Z,52.49
2018-07-15T00:21:03.314Z,53.55
2018-07-15T00:23:31.171Z,53.77
2018-07-15T00:25:59.006Z,53.10
2018-07-15T00:28:26.892Z,53.76
2018-07-15T00:30:54.781Z,53.34
2018-07-15T00:33:22.656Z,53.88
2018-07-15T00:35:50.541Z,53.08
2018-07-15T00:38:18.409Z,53.66
2018-07-15T00:40:46.341Z,53.80
2018-07-15T00:43:14.191Z,53.61
2018-07-15T00:45:42.041Z,53.80
2018-07-15T00:48:09.983Z,54.22
2018-07-15T00:53:05.038Z,54.63
2018-07-15T00:55:32.937Z,53.69
2018-07-15T00:58:00.776Z,53.93
2018-07-15T01:00:34.236Z,54.60
2018-07-15T01:03:02.094Z,54.75
2018-07-15T01:05:29.953Z,54.29
2018-07-15T01:07:58.086Z,55.01
2018-07-15T01:10:25.958Z,55.10
2018-07-15T01:12:53.782Z,54.75
2018-07-15T01:15:21.641Z,54.88
2018-07-15T01:17:49.508Z,55.86
2018-07-15T01:20:17.662Z,55.63
2018-07-15T01:22:45.520Z,55.20
2018-07-15T01:25:13.356Z,55.06
2018-07-15T01:27:41.245Z,56.26
2018-07-15T01:30:09.210Z,55.92
2018-07-15T01:32:37.086Z,55.51
2018-07-15T01:35:04.987Z,56.04
2018-07-15T01:37:32.874Z,56.24
2018-07-15T01:40:01.023Z,56.37
2018-07-15T01:42:28.879Z,56.07
2018-07-15T01:44:56.787Z,56.40
2018-07-15T01:47:24.646Z,56.75
2018-07-15T01:49:52.493Z,55.76
2018-07-15T01:52:20.330Z,56.55
2018-07-15T01:54:48.170Z,57.12
2018-07-15T01:57:15.992Z,56.79
2018-07-15T01:59:43.847Z,56.70
2018-07-15T02:02:11.742Z,56.57
2018-07-15T02:04:39.602Z,56.50
2018-07-15T02:07:07.598Z,56.44
2018-07-15T02:09:35.510Z,57.39
2018-07-15T02:12:03.350Z,57.03
2018-07-15T02:14:31.240Z,57.37
2018-07-15T02:16:59.134Z,56.96
2018-07-15T02:19:26.973Z,57.48
2018-07-15T02:21:54.814Z,57.37
2018-07-15T02:24:22.667Z,57.06
2018-07-15T02:26:50.539Z,58.16
2018-07-15T02:29:18.418Z,57.62
2018-07-15T02:31:46.279Z,57.78
2018-07-15T02:34:14.132Z,57.55
2018-07-15T02:36:42.034Z,58.02
2018-07-15T02:39:10.619Z,57.26
2018-07-15T02:41:38.469Z,57.21
2018-07-15T02:44:06.725Z,57.35
2018-07-15T02:46:34.797Z,56.96
2018-07-15T02:49:02.663Z,56.62
2018-07-15T02:51:30.494Z,57.14
2018-07-15T02:53:58.411Z,57.56
2018-07-15T02:56:26.290Z,57.22
2018-07-15T02:58:54.179Z,57.53
2018-07-15T03:01:22.018Z,56.98
2018-07-15T03:03:50.002Z,56.46
2018-07-15T03:06:17.929Z,55.03
2018-07-15T03:08:45.773Z,55.18
2018-07-15T03:11:13.742Z,53.64
2018-07-15T03:13:41.569Z,51.16
2018-07-15T03:16:09.460Z,50.09
2018-07-15T03:18:37.361Z,47.94
2018-07-15T03:21:05.290Z,45.17
2018-07-15T03:23:33.166Z,46.49
2018-07-15T03:26:01.281Z,46.18
2018-07-15T03:28:29.148Z,46.58
2018-07-15T03:30:57.072Z,45.38
2018-07-15T03:33:24.968Z,43.70
2018-07-15T03:35:52.799Z,40.06
2018-07-15T03:38:20.618Z,37.97
2018-07-15T03:40:48.463Z,36.87
2018-07-15T03:43:16.352Z,38.85
2018-07-15T03:45:44.217Z,36.72
2018-07-15T03:48:12.350Z,35.01
2018-07-15T03:50:40.534Z,36.11
2018-07-15T03:53:08.395Z,35.52
2018-07-15T03:55:36.283Z,35.07
2018-07-15T03:58:04.159Z,32.92
2018-07-15T04:00:32.018Z,34.13
2018-07-15T04:02:59.790Z,32.50
2018-07-15T04:05:27.679Z,30.78
2018-07-15T04:07:55.553Z,29.79
2018-07-15T04:10:23.439Z,30.88
2018-07-15T04:12:51.293Z,30.19
2018-07-15T04:15:19.187Z,28.99
2018-07-15T04:17:51.539Z,29.00
2018-07-15T04:20:19.423Z,30.49
2018-07-15T04:22:47.269Z,29.19
2018-07-15T04:25:15.129Z,29.05
2018-07-15T04:27:42.950Z,28.71
2018-07-15T04:30:10.794Z,27.42
2018-07-15T04:32:38.675Z,25.50
2018-07-15T04:35:06.594Z,24.36
2018-07-15T04:37:34.473Z,23.14
2018-07-15T04:40:02.347Z,25.01
2018-07-15T04:42:30.260Z,27.46
2018-07-15T04:44:58.162Z,28.24
2018-07-15T04:47:25.990Z,27.44
2018-07-15T04:49:53.861Z,27.13
2018-07-15T04:52:21.709Z,25.16
2018-07-15T04:54:49.615Z,25.98
2018-07-15T04:57:17.447Z,26.64
2018-07-15T04:59:45.257Z,25.05
2018-07-15T05:02:13.070Z,23.03
2018-07-15T05:04:40.921Z,21.98
2018-07-15T05:07:08.782Z,22.66
2018-07-15T05:09:36.670Z,23.39
2018-07-15T05:12:04.517Z,24.03
2018-07-15T05:14:32.378Z,27.62
2018-07-15T05:17:00.609Z,26.80
2018-07-15T05:19:28.615Z,27.37
2018-07-15T05:21:56.493Z,28.14
2018-07-15T05:24:24.329Z,28.02
2018-07-15T05:26:52.181Z,27.63
2018-07-15T05:29:20.025Z,26.66
2018-07-15T05:31:47.829Z,29.21
2018-07-15T05:34:15.705Z,28.87
2018-07-15T05:36:43.629Z,29.49
2018-07-15T05:39:11.414Z,31.47
2018-07-15T05:41:39.305Z,29.16
2018-07-15T05:44:07.182Z,27.19
2018-07-15T05:46:35.076Z,28.97
2018-07-15T05:49:02.946Z,31.43
2018-07-15T05:51:30.802Z,31.54
2018-07-15T05:53:58.647Z,30.10
2018-07-15T05:56:26.502Z,30.50
2018-07-15T05:58:54.803Z,34.85
2018-07-15T06:01:22.887Z,33.80
2018-07-15T06:03:50.657Z,32.36
2018-07-15T06:06:18.522Z,34.69
2018-07-15T06:08:46.402Z,30.87
2018-07-15T06:11:14.363Z,29.24
2018-07-15T06:13:42.286Z,29.43
2018-07-15T06:16:10.224Z,29.85
2018-07-15T06:18:38.120Z,31.52
2018-07-15T06:21:05.994Z,33.43
2018-07-15T06:23:33.861Z,33.30
2018-07-15T06:28:40.470Z,33.14
2018-07-15T06:31:08.309Z,31.01
2018-07-15T06:33:36.107Z,31.71
2018-07-15T06:36:03.993Z,31.61
2018-07-15T06:38:31.766Z,30.60
2018-07-15T06:40:59.633Z,32.10
2018-07-15T06:43:27.510Z,34.15
2018-07-15T06:45:55.330Z,34.19
2018-07-15T06:48:23.154Z,33.54
2018-07-15T06:50:50.985Z,38.13
2018-07-15T06:53:18.805Z,35.26
2018-07-15T06:55:46.698Z,32.97
2018-07-15T06:58:14.513Z,33.67
2018-07-15T07:00:42.364Z,33.86
2018-07-15T07:03:10.165Z,33.66
2018-07-15T07:05:38.036Z,34.50
2018-07-15T07:08:05.913Z,35.12
2018-07-15T07:10:33.769Z,34.41
2018-07-15T07:13:01.638Z,32.72
2018-07-15T07:15:29.413Z,32.41
2018-07-15T07:17:57.267Z,31.90
2018-07-15T07:20:25.165Z,33.21
2018-07-15T07:22:53.634Z,35.22
2018-07-15T07:25:21.486Z,33.22
2018-07-15T07:27:49.377Z,33.50
2018-07-15T07:30:17.245Z,31.22
2018-07-15T07:32:45.244Z,32.14
2018-07-15T07:35:13.104Z,32.45
2018-07-15T07:37:40.955Z,34.36
2018-07-15T07:40:09.147Z,32.75
2018-07-15T07:42:37.004Z,32.00
2018-07-15T07:45:05.007Z,31.46
2018-07-15T07:47:32.843Z,31.91
2018-07-15T07:50:00.932Z,32.10
2018-07-15T07:52:28.766Z,34.15
2018-07-15T07:54:56.615Z,32.60
2018-07-15T07:57:24.818Z,35.13
2018-07-15T07:59:52.665Z,33.88
2018-07-15T08:02:20.574Z,34.70
2018-07-15T08:04:48.442Z,33.36
2018-07-15T08:07:16.273Z,34.71
2018-07-15T08:09:44.048Z,35.83
2018-07-15T08:12:11.918Z,35.96
2018-07-15T08:14:39.745Z,34.03
2018-07-15T08:17:07.575Z,33.23
2018-07-15T08:19:35.434Z,32.99
2018-07-15T08:22:03.327Z,35.63
2018-07-15T08:24:31.197Z,33.64
2018-07-15T08:26:59.035Z,33.38
2018-07-15T08:29:26.886Z,32.23
2018-07-15T08:31:54.662Z,32.63
2018-07-15T08:34:22.530Z,32.37
2018-07-15T08:36:50.304Z,33.55
2018-07-15T08:39:18.825Z,34.80
2018-07-15T08:41:46.649Z,33.77
2018-07-15T08:44:14.465Z,34.89
2018-07-15T08:46:42.420Z,34.39
2018-07-15T08:49:10.270Z,33.85
2018-07-15T08:51:38.090Z,33.98
2018-07-15T08:54:05.953Z,35.38
2018-07-15T08:56:34.138Z,33.59
2018-07-15T08:59:02.027Z,34.65
2018-07-15T09:01:29.883Z,35.91
2018-07-15T09:03:57.748Z,34.70
2018-07-15T09:06:25.638Z,34.05
2018-07-15T09:08:53.476Z,32.98
2018-07-15T09:11:21.356Z,31.93
2018-07-15T09:13:49.204Z,33.83
2018-07-15T09:16:17.194Z,34.12
2018-07-15T09:18:44.998Z,33.61
2018-07-15T09:21:12.870Z,34.43
2018-07-15T09:23:40.725Z,33.23
2018-07-15T09:26:08.545Z,33.77
2018-07-15T09:28:36.434Z,33.28
2018-07-15T09:31:04.297Z,33.17
2018-07-15T09:33:32.126Z,33.58
2018-07-15T09:36:00.047Z,32.77
2018-07-15T09:38:27.923Z,34.43
2018-07-15T09:40:55.842Z,33.14
2018-07-15T09:43:23.724Z,32.78
2018-07-15T09:45:51.494Z,32.94
2018-07-15T09:48:19.370Z,33.08
2018-07-15T09:50:47.255Z,31.63
2018-07-15T09:53:15.129Z,33.41
2018-07-15T09:55:43.039Z,31.37
2018-07-15T09:58:10.968Z,33.34
2018-07-15T10:00:44.523Z,32.16
2018-07-15T10:03:12.375Z,32.58
2018-07-15T10:05:40.201Z,31.37
2018-07-15T10:08:08.129Z,32.46
2018-07-15T10:10:35.987Z,32.59
2018-07-15T10:13:03.777Z,32.68
2018-07-15T10:15:31.622Z,32.76
2018-07-15T10:17:59.488Z,30.95
2018-07-15T10:20:27.323Z,32.41
2018-07-15T10:22:55.184Z,32.32
2018-07-15T10:25:23.026Z,30.50
2018-07-15T10:27:50.806Z,30.22
2018-07-15T10:30:18.573Z,29.75
2018-07-15T10:32:46.692Z,32.32
2018-07-15T10:35:14.485Z,30.99
2018-07-15T10:37:42.347Z,31.91
2018-07-15T10:40:10.202Z,29.54
2018-07-15T10:42:38.087Z,30.29
2018-07-15T10:45:06.163Z,30.49
2018-07-15T10:47:34.140Z,31.36
2018-07-15T10:50:02.018Z,30.81
2018-07-15T10:52:29.823Z,30.54
2018-07-15T10:54:57.679Z,30.74
2018-07-15T10:57:25.511Z,29.39
2018-07-15T10:59:53.394Z,29.96
2018-07-15T11:02:21.271Z,31.29
2018-07-15T11:04:49.139Z,29.24
2018-07-15T11:07:17.018Z,30.35
2018-07-15T11:09:45.149Z,31.92
2018-07-15T11:12:13.069Z,31.00
2018-07-15T11:14:40.878Z,29.12
2018-07-15T11:17:08.665Z,29.55
2018-07-15T11:19:36.642Z,29.93
2018-07-15T11:22:04.574Z,29.45
2018-07-15T11:24:32.397Z,30.67
2018-07-15T11:27:00.369Z,30.59
2018-07-15T11:29:28.468Z,29.28
2018-07-15T11:31:56.297Z,30.19
2018-07-15T11:34:24.138Z,29.65
2018-07-15T11:36:52.064Z,30.55
2018-07-15T11:39:19.906Z,30.46
2018-07-15T11:41:47.698Z,30.60
2018-07-15T11:44:15.521Z,29.30
2018-07-15T11:46:43.384Z,28.85
2018-07-15T11:49:11.244Z,29.98
2018-07-15T11:51:39.098Z,30.05
2018-07-15T11:54:06.971Z,29.98
2018-07-15T11:56:34.777Z,30.54
2018-07-15T11:59:02.667Z,28.19
2018-07-15T12:01:30.544Z,27.34
2018-07-15T12:03:58.546Z,28.21
2018-07-15T12:06:26.395Z,27.33
2018-07-15T12:08:54.204Z,27.56
2018-07-15T12:11:22.034Z,30.48
2018-07-15T12:13:49.875Z,28.90
2018-07-15T12:16:17.741Z,27.60
2018-07-15T12:18:45.694Z,28.50
2018-07-15T12:21:13.554Z,28.96
2018-07-15T12:23:41.666Z,28.30
2018-07-15T12:26:09.472Z,28.82
2018-07-15T12:28:37.310Z,27.35
2018-07-15T12:31:05.112Z,29.04
2018-07-15T12:33:33.222Z,28.67
2018-07-15T12:36:01.154Z,28.22
2018-07-15T12:38:29.043Z,28.06
2018-07-15T12:40:56.853Z,27.44
2018-07-15T12:43:24.951Z,27.57
2018-07-15T12:45:52.838Z,28.44
2018-07-15T12:48:20.791Z,28.52
2018-07-15T12:50:48.857Z,27.73
2018-07-15T12:53:16.925Z,27.59
2018-07-15T12:55:44.932Z,27.83
2018-07-15T12:58:12.901Z,27.41
2018-07-15T13:00:40.910Z,27.48
2018-07-15T13:03:08.888Z,26.92
2018-07-15T13:05:36.857Z,26.69
2018-07-15T13:08:04.716Z,26.18
2018-07-15T13:10:32.651Z,25.09
2018-07-15T13:13:00.608Z,25.86
2018-07-15T13:15:28.615Z,26.27
2018-07-15T13:17:56.575Z,25.54
2018-07-15T13:20:24.390Z,26.76
2018-07-15T13:22:52.412Z,27.61
2018-07-15T13:25:20.320Z,26.58
2018-07-15T13:27:48.374Z,25.54
2018-07-15T13:30:16.393Z,25.86
2018-07-15T13:32:44.326Z,26.01
2018-07-15T13:35:12.373Z,24.55
2018-07-15T13:37:40.333Z,25.68
2018-07-15T13:40:08.320Z,25.50
2018-07-15T13:42:36.392Z,26.98
2018-07-15T13:45:04.352Z,27.67
2018-07-15T13:47:32.245Z,28.53
2018-07-15T13:50:00.125Z,27.59
2018-07-15T13:52:28.060Z,26.78
2018-07-15T13:54:55.995Z,27.42
2018-07-15T13:57:23.886Z,28.41
2018-07-15T13:59:51.777Z,28.87
2018-07-15T14:02:19.689Z,27.59
2018-07-15T14:04:47.563Z,27.53
2018-07-15T14:07:15.394Z,27.25
2018-07-15T14:09:43.157Z,27.66
2018-07-15T14:12:10.991Z,26.83
2018-07-15T14:14:38.853Z,26.35
2018-07-15T14:17:06.809Z,27.62
2018-07-15T14:19:35.474Z,27.46
2018-07-15T14:22:03.574Z,26.31
2018-07-15T14:24:31.516Z,26.91
2018-07-15T14:26:59.371Z,26.43
2018-07-15T14:29:27.214Z,26.72
2018-07-15T14:31:54.971Z,26.53
2018-07-15T14:34:22.854Z,26.30
2018-07-15T14:36:50.720Z,25.66
2018-07-15T14:39:18.645Z,27.02
2018-07-15T14:41:46.691Z,26.27
2018-07-15T14:44:14.637Z,26.59
2018-07-15T14:46:42.579Z,26.52
2018-07-15T14:49:10.648Z,27.20
2018-07-15T14:51:38.546Z,27.26
2018-07-15T14:54:06.456Z,27.60
2018-07-15T14:56:34.296Z,27.85
2018-07-15T14:59:02.226Z,28.19
2018-07-15T15:01:30.075Z,27.14
2018-07-15T15:03:57.963Z,28.49
2018-07-15T15:06:26.597Z,26.89
2018-07-15T15:08:54.495Z,28.11
2018-07-15T15:11:22.481Z,27.31
2018-07-15T15:13:50.641Z,26.55
2018-07-15T15:16:18.943Z,27.97
2018-07-15T15:18:48.119Z,27.57
2018-07-15T15:21:16.440Z,28.57
2018-07-15T15:23:44.409Z,27.91
2018-07-15T15:26:12.297Z,28.58
2018-07-15T15:28:40.378Z,28.66
2018-07-15T15:31:08.640Z,28.60
2018-07-15T15:33:36.898Z,29.46
2018-07-15T15:36:04.747Z,29.64
2018-07-15T15:38:32.974Z,29.92
2018-07-15T15:41:01.091Z,29.57
2018-07-15T15:43:29.145Z,29.37
2018-07-15T15:45:57.621Z,30.16
2018-07-15T15:48:25.585Z,30.15
2018-07-15T15:50:53.771Z,31.09
2018-07-15T15:53:21.614Z,31.01
2018-07-15T15:55:49.546Z,30.81
2018-07-15T15:58:17.653Z,31.62
2018-07-15T16:00:45.583Z,30.97
2018-07-15T16:03:13.650Z,31.33
2018-07-15T16:05:41.545Z,32.05
2018-07-15T16:08:09.377Z,32.30
2018-07-15T16:10:37.398Z,32.89
2018-07-15T16:13:06.707Z,33.28
2018-07-15T16:15:34.564Z,32.13
2018-07-15T16:18:04.046Z,32.03
2018-07-15T16:20:32.013Z,32.21
2018-07-15T16:23:00.414Z,32.39
2018-07-15T16:25:28.842Z,32.83
2018-07-15T16:27:56.965Z,32.96
2018-07-15T16:30:25.217Z,33.70
2018-07-15T16:32:53.174Z,33.34
2018-07-15T16:35:21.059Z,32.84
2018-07-15T16:37:48.933Z,33.69
2018-07-15T16:40:16.757Z,34.71
2018-07-15T16:42:46.691Z,34.15
2018-07-15T16:45:15.794Z,35.10
2018-07-15T16:47:44.948Z,35.01
2018-07-15T16:50:16.088Z,35.50
2018-07-15T16:52:44.235Z,35.54
2018-07-15T16:55:12.187Z,36.04
2018-07-15T16:57:40.307Z,35.28
2018-07-15T17:00:08.312Z,36.21
2018-07-15T17:02:36.527Z,36.01
2018-07-15T17:05:04.448Z,36.65
2018-07-15T17:07:32.633Z,35.79
2018-07-15T17:10:00.509Z,36.15
2018-07-15T17:12:28.404Z,36.16
2018-07-15T17:14:56.214Z,36.62
2018-07-15T17:17:24.135Z,36.99
2018-07-15T17:19:51.994Z,36.29
2018-07-15T17:22:19.777Z,36.81
2018-07-15T17:24:47.622Z,36.67
2018-07-15T17:27:15.407Z,36.65
2018-07-15T17:29:43.233Z,37.53
2018-07-15T17:32:11.124Z,37.40
2018-07-15T17:34:39.003Z,37.63
2018-07-15T17:37:06.818Z,37.21
2018-07-15T17:39:34.614Z,37.25
2018-07-15T17:42:02.426Z,36.89
2018-07-15T17:44:30.269Z,37.27
2018-07-15T17:46:58.243Z,37.47
2018-07-15T17:49:26.133Z,37.26
2018-07-15T17:51:54.045Z,38.23
2018-07-15T17:54:21.900Z,38.58
2018-07-15T17:56:49.798Z,38.00
2018-07-15T17:59:17.712Z,38.29
2018-07-15T18:01:45.489Z,37.98
2018-07-15T18:04:13.372Z,37.73
2018-07-15T18:06:41.219Z,39.13
2018-07-15T18:09:09.144Z,38.91
2018-07-15T18:11:37.162Z,39.41
2018-07-15T18:14:05.265Z,39.15
2018-07-15T18:16:33.199Z,38.82
2018-07-15T18:19:02.055Z,39.28
2018-07-15T18:21:29.984Z,39.35
2018-07-15T18:23:57.766Z,38.92
2018-07-15T18:26:26.045Z,38.81
2018-07-15T18:28:53.950Z,39.44
2018-07-15T18:31:21.761Z,39.33
2018-07-15T18:33:49.708Z,39.82
2018-07-15T18:36:17.647Z,39.83
2018-07-15T18:38:45.616Z,39.77
2018-07-15T18:41:13.468Z,39.71
2018-07-15T18:43:41.365Z,39.79
2018-07-15T18:46:09.320Z,39.18
2018-07-15T18:48:37.121Z,39.85
2018-07-15T18:51:04.978Z,39.59
2018-07-15T18:53:32.814Z,39.86
2018-07-15T18:56:00.595Z,39.41
2018-07-15T18:58:28.411Z,39.19
2018-07-15T19:00:56.185Z,38.68
2018-07-15T19:03:23.952Z,39.16
2018-07-15T19:05:51.742Z,39.50
2018-07-15T19:08:19.582Z,39.23
2018-07-15T19:10:47.382Z,39.75
2018-07-15T19:13:15.277Z,39.03
2018-07-15T19:15:43.133Z,39.28
2018-07-15T19:18:10.980Z,39.18
2018-07-15T19:20:38.819Z,40.03
2018-07-15T19:23:06.667Z,40.18
2018-07-15T19:25:34.584Z,40.40
2018-07-15T19:28:02.397Z,39.80
2018-07-15T19:30:30.270Z,39.99
2018-07-15T19:32:58.204Z,40.33
2018-07-15T19:35:26.343Z,40.07
2018-07-15T19:37:54.277Z,40.12
2018-07-15T19:40:22.212Z,40.17
2018-07-15T19:42:50.006Z,41.13
2018-07-15T19:45:17.851Z,41.30
2018-07-15T19:47:45.632Z,42.42
2018-07-15T19:50:13.453Z,42.17
2018-07-15T19:52:41.266Z,41.90
2018-07-15T19:55:09.038Z,42.34
2018-07-15T19:57:36.832Z,42.47
2018-07-15T20:00:04.683Z,42.72
2018-07-15T20:02:32.506Z,43.38
2018-07-15T20:05:00.391Z,42.78
2018-07-15T20:07:28.173Z,43.49
2018-07-15T20:09:55.987Z,44.48
2018-07-15T20:12:23.806Z,43.66
2018-07-15T20:14:51.566Z,44.51
2018-07-15T20:17:19.666Z,43.95
2018-07-15T20:19:47.589Z,44.53
2018-07-15T20:22:15.347Z,45.43
2018-07-15T20:24:43.475Z,44.13
2018-07-15T20:27:11.598Z,44.68
2018-07-15T20:29:39.422Z,45.46
2018-07-15T20:32:07.201Z,45.40
2018-07-15T20:34:35.004Z,46.06
2018-07-15T20:37:02.823Z,45.63
2018-07-15T20:39:30.603Z,46.26
2018-07-15T20:41:58.414Z,45.53
2018-07-15T20:44:26.218Z,46.79
2018-07-15T20:46:54.013Z,46.17
2018-07-15T20:49:21.812Z,46.14
2018-07-15T20:51:49.648Z,46.75
2018-07-15T20:54:17.450Z,46.32
2018-07-15T20:56:45.250Z,46.66
2018-07-15T20:59:13.050Z,46.40
2018-07-15T21:01:40.840Z,46.54
2018-07-15T21:04:08.606Z,46.88
2018-07-15T21:06:36.385Z,46.35
2018-07-15T21:09:05.638Z,46.36
2018-07-15T21:11:33.477Z,46.33
2018-07-15T21:14:01.457Z,47.40
2018-07-15T21:16:29.276Z,47.21
2018-07-15T21:18:57.401Z,46.67
2018-07-15T21:21:25.178Z,46.83
2018-07-15T21:23:53.105Z,46.36
2018-07-15T21:26:20.970Z,46.39
2018-07-15T21:28:48.758Z,46.20
2018-07-15T21:31:16.965Z,46.66
2018-07-15T21:33:44.773Z,46.49
2018-07-15T21:36:12.529Z,47.13
2018-07-15T21:38:40.307Z,46.83
2018-07-15T21:41:08.067Z,46.96
2018-07-15T21:43:35.830Z,48.30
2018-07-15T21:46:03.641Z,47.15
2018-07-15T21:48:31.435Z,47.52
2018-07-15T21:50:59.230Z,48.24
2018-07-15T21:53:27.023Z,48.00
2018-07-15T21:55:55.091Z,48.02
2018-07-15T21:58:22.911Z,47.49
2018-07-15T22:00:50.875Z,48.23
2018-07-15T22:03:18.669Z,48.55
2018-07-15T22:05:46.451Z,47.92
2018-07-15T22:08:25.385Z,49.14
2018-07-15T22:10:53.220Z,49.62
2018-07-15T22:13:21.060Z,49.53
2018-07-15T22:15:48.898Z,48.89
2018-07-15T22:18:16.682Z,49.46
2018-07-15T22:20:44.473Z,49.84
2018-07-15T22:23:12.249Z,50.21
2018-07-15T22:25:40.085Z,50.47
2018-07-15T22:28:07.877Z,50.77
2018-07-15T22:30:35.657Z,50.99
2018-07-15T22:33:03.442Z,51.42
2018-07-15T22:35:31.208Z,51.12
2018-07-15T22:37:58.977Z,51.85
2018-07-15T22:40:26.897Z,51.39
2018-07-15T22:42:54.662Z,51.11
2018-07-15T22:45:22.434Z,52.91
2018-07-15T22:47:50.548Z,51.90
2018-07-15T22:50:18.326Z,51.93
2018-07-15T22:52:46.109Z,52.33
2018-07-15T22:55:13.946Z,52.60
2018-07-15T22:57:41.819Z,52.62
2018-07-15T23:00:09.770Z,52.49
2018-07-15T23:02:37.534Z,52.52
2018-07-15T23:05:59.046Z,53.06
2018-07-15T23:08:28.032Z,53.67
2018-07-15T23:10:55.884Z,53.47
2018-07-15T23:13:23.716Z,53.06
2018-07-15T23:15:51.772Z,53.44
2018-07-15T23:18:19.678Z,53.48
2018-07-15T23:20:48.183Z,54.33
2018-07-15T23:23:16.245Z,53.54
2018-07-15T23:25:44.160Z,53.66
2018-07-15T23:28:13.042Z,53.38
2018-07-15T23:30:41.382Z,54.12
2018-07-15T23:33:09.553Z,53.36
2018-07-15T23:35:37.401Z,53.88
2018-07-15T23:38:05.331Z,54.33
2018-07-15T23:40:33.295Z,54.19
2018-07-15T23:43:01.434Z,53.64
2018-07-15T23:45:30.134Z,54.51
2018-07-15T23:47:57.984Z,54.63
2018-07-15T23:50:25.970Z,54.13
2018-07-15T23:52:54.034Z,54.65
2018-07-15T23:55:22.226Z,54.92
2018-07-15T23:57:49.977Z,54.79
